Time;durP1;ratioP1;P1;durP2;ratioP2;P2;SDS_P1;SDS_P2;PMS_P1;PMS_P2;Temp;Humidity;BMP_temperature;BMP_pressure;BME280_temperature;BME280_humidity;BME280_pressure;Samples;Min_cycle;Max_cycle;Signal;HPM_P1;HPM_P2
2021/09/25 00:02:21;;;;;;;1.30;1.27;;;12.10;98.00;;;;;;5071692;28;20487;-69
2021/09/25 00:04:49;;;;;;;5.63;2.10;;;12.10;98.00;;;;;;5071646;28;20546;-69
2021/09/25 00:07:16;;;;;;;2.43;1.50;;;12.20;98.00;;;;;;5071561;28;20449;-69
2021/09/25 00:09:43;;;;;;;2.00;1.33;;;12.10;98.00;;;;;;5071671;28;20453;-68
2021/09/25 00:12:11;;;;;;;1.20;1.10;;;12.00;98.00;;;;;;5071720;28;20482;-68
2021/09/25 00:14:38;;;;;;;3.87;1.87;;;11.90;98.00;;;;;;5071646;28;20560;-68
2021/09/25 00:17:07;;;;;;;1.30;1.20;;;12.00;98.00;;;;;;5071581;28;20474;-68
2021/09/25 00:19:36;;;;;;;3.93;1.67;;;12.10;98.00;;;;;;5071426;28;20468;-68
2021/09/25 00:22:04;;;;;;;1.50;1.30;;;12.10;98.00;;;;;;5071223;28;20497;-69
2021/09/25 00:24:31;;;;;;;1.80;1.30;;;12.00;98.00;;;;;;5071500;28;20455;-69
2021/09/25 00:26:58;;;;;;;1.60;1.50;;;12.00;98.00;;;;;;5071516;28;20454;-70
2021/09/25 00:29:25;;;;;;;1.93;1.20;;;12.00;98.00;;;;;;5071355;28;20463;-69
2021/09/25 00:31:52;;;;;;;2.13;1.83;;;12.00;98.00;;;;;;5071568;28;20508;-67
2021/09/25 00:34:21;;;;;;;1.40;1.23;;;11.90;98.00;;;;;;5071232;28;20536;-68
2021/09/25 00:36:48;;;;;;;2.13;1.30;;;11.80;98.00;;;;;;5071497;28;20464;-67
2021/09/25 00:39:15;;;;;;;3.40;1.63;;;11.70;98.00;;;;;;5071276;28;20500;-69
2021/09/25 00:41:42;;;;;;;1.20;1.10;;;11.80;98.00;;;;;;5071555;28;20458;-68
2021/09/25 00:44:09;;;;;;;1.40;1.30;;;11.80;98.00;;;;;;5071453;28;20546;-69
2021/09/25 00:46:42;;;;;;;2.33;1.73;;;11.90;98.00;;;;;;5071384;28;20525;-68
2021/09/25 00:49:09;;;;;;;1.20;1.13;;;11.70;98.00;;;;;;5071271;28;20461;-68
2021/09/25 00:51:37;;;;;;;1.30;1.30;;;11.60;98.00;;;;;;5071520;28;20464;-70
2021/09/25 00:54:04;;;;;;;1.50;1.37;;;11.50;98.00;;;;;;5071382;28;20461;-69
2021/09/25 00:56:31;;;;;;;1.83;1.50;;;11.50;98.00;;;;;;5071831;28;20479;-70
2021/09/25 00:58:58;;;;;;;1.80;1.60;;;11.50;98.00;;;;;;5075405;28;20457;-69
2021/09/25 01:01:25;;;;;;;2.33;1.30;;;11.60;98.00;;;;;;5075403;28;20509;-67
2021/09/25 01:03:52;;;;;;;1.20;1.00;;;11.50;98.00;;;;;;5075320;28;20515;-69
2021/09/25 01:06:19;;;;;;;1.83;1.80;;;11.40;98.00;;;;;;5075345;28;20522;-69
2021/09/25 01:08:48;;;;;;;1.30;1.13;;;11.50;98.00;;;;;;5075173;28;20541;-69
2021/09/25 01:11:15;;;;;;;1.90;1.63;;;11.40;98.00;;;;;;5075158;28;20495;-69
2021/09/25 01:13:43;;;;;;;1.20;1.20;;;11.30;98.00;;;;;;5075120;28;20517;-70
2021/09/25 01:16:10;;;;;;;1.70;1.37;;;11.30;98.00;;;;;;5074867;28;20927;-68
2021/09/25 01:18:37;;;;;;;1.30;1.10;;;11.30;98.00;;;;;;5074685;28;20481;-68
2021/09/25 01:21:06;;;;;;;1.73;1.30;;;11.40;98.00;;;;;;5074892;28;20517;-71
2021/09/25 01:23:34;;;;;;;2.17;1.20;;;11.30;98.00;;;;;;5074505;28;20452;-69
2021/09/25 01:26:02;;;;;;;1.87;1.47;;;11.30;98.00;;;;;;5074637;28;20514;-68
2021/09/25 01:28:31;;;;;;;1.67;1.67;;;11.20;98.00;;;;;;5074512;28;20488;-67
2021/09/25 01:30:59;;;;;;;1.77;1.50;;;11.20;98.00;;;;;;5074611;28;20844;-69
2021/09/25 01:33:27;;;;;;;2.33;1.50;;;11.30;98.00;;;;;;5074187;28;20455;-69
2021/09/25 01:35:54;;;;;;;1.90;1.73;;;11.30;98.00;;;;;;5074598;28;20483;-69
2021/09/25 01:38:23;;;;;;;1.67;1.10;;;11.20;98.00;;;;;;5074475;28;20468;-69
2021/09/25 01:40:53;;;;;;;1.30;1.17;;;11.10;98.00;;;;;;5074305;28;20477;-68
2021/09/25 01:43:21;;;;;;;1.80;1.40;;;11.10;98.00;;;;;;5073167;28;20465;-70
2021/09/25 01:45:48;;;;;;;1.43;1.23;;;11.10;98.00;;;;;;5074320;28;21157;-68
2021/09/25 01:48:16;;;;;;;1.70;1.20;;;11.10;98.00;;;;;;5074282;28;20458;-69
2021/09/25 01:50:43;;;;;;;1.30;1.30;;;11.20;98.00;;;;;;5074168;28;20508;-69
2021/09/25 01:53:11;;;;;;;1.20;1.10;;;11.20;98.00;;;;;;5074175;28;20879;-68
2021/09/25 01:55:39;;;;;;;1.57;1.40;;;11.20;98.00;;;;;;5074201;28;20455;-68
2021/09/25 01:58:09;;;;;;;1.30;1.10;;;11.10;98.00;;;;;;5074313;28;20955;-69
2021/09/25 02:00:36;;;;;;;2.63;1.80;;;11.00;98.00;;;;;;5074130;28;20465;-68
2021/09/25 02:03:04;;;;;;;2.07;1.90;;;10.90;98.00;;;;;;5074147;28;20523;-70
2021/09/25 02:05:31;;;;;;;1.50;1.30;;;10.90;98.00;;;;;;5073912;28;21056;-69
2021/09/25 02:07:59;;;;;;;3.73;1.63;;;10.90;98.00;;;;;;5073467;28;20545;-69
2021/09/25 02:10:26;;;;;;;1.87;1.40;;;10.90;98.00;;;;;;5072594;28;20463;-69
2021/09/25 02:12:55;;;;;;;2.57;1.60;;;11.00;98.00;;;;;;5074071;28;20485;-69
2021/09/25 02:15:22;;;;;;;1.33;1.33;;;11.10;98.00;;;;;;5073972;28;20477;-68
2021/09/25 02:17:49;;;;;;;1.40;1.30;;;11.00;98.00;;;;;;5074015;28;20515;-68
2021/09/25 02:20:16;;;;;;;1.90;1.30;;;11.00;98.00;;;;;;5073875;28;20992;-69
2021/09/25 02:22:43;;;;;;;1.77;1.40;;;10.80;98.00;;;;;;5074044;28;20512;-68
2021/09/25 02:25:13;;;;;;;1.20;1.10;;;10.80;98.00;;;;;;5073610;28;20501;-68
2021/09/25 02:27:41;;;;;;;4.70;1.70;;;10.80;98.00;;;;;;5073830;28;20455;-69
2021/09/25 02:30:13;;;;;;;1.20;1.10;;;10.80;98.00;;;;;;5073822;28;20462;-71
2021/09/25 02:32:40;;;;;;;1.20;1.10;;;10.70;98.00;;;;;;5073655;28;20491;-69
2021/09/25 02:35:10;;;;;;;2.00;1.30;;;10.70;98.00;;;;;;5073685;28;20524;-68
2021/09/25 02:37:37;;;;;;;1.23;1.07;;;10.70;98.00;;;;;;5073472;28;20963;-68
2021/09/25 02:40:07;;;;;;;1.40;1.30;;;10.80;98.00;;;;;;5073413;28;20481;-69
2021/09/25 02:42:34;;;;;;;1.70;1.20;;;10.80;98.00;;;;;;5073413;28;20553;-70
2021/09/25 02:45:01;;;;;;;1.20;1.10;;;10.70;98.00;;;;;;5073110;28;20491;-69
2021/09/25 02:47:29;;;;;;;1.83;1.37;;;10.90;98.00;;;;;;5073200;28;20533;-69
2021/09/25 02:49:56;;;;;;;1.60;1.20;;;10.80;98.00;;;;;;5073143;28;20486;-68
2021/09/25 02:52:23;;;;;;;2.27;1.40;;;10.70;98.00;;;;;;5073243;28;20987;-68
2021/09/25 02:54:50;;;;;;;1.80;1.33;;;10.80;98.00;;;;;;5072963;28;20851;-69
2021/09/25 02:57:17;;;;;;;1.30;1.10;;;10.80;98.00;;;;;;5073034;28;20460;-68
2021/09/25 02:59:45;;;;;;;1.20;1.10;;;10.90;98.00;;;;;;5072866;28;20462;-70
2021/09/25 03:02:19;;;;;;;1.30;1.10;;;10.90;98.00;;;;;;5072942;28;20484;-70
2021/09/25 03:04:48;;;;;;;1.30;1.10;;;10.80;98.00;;;;;;5072930;28;20458;-70
2021/09/25 03:07:15;;;;;;;1.60;1.40;;;10.90;98.00;;;;;;5072402;28;20535;-69
2021/09/25 03:09:42;;;;;;;2.10;1.53;;;10.80;98.00;;;;;;5072675;28;20477;-69
2021/09/25 03:12:09;;;;;;;1.97;1.40;;;10.90;98.00;;;;;;5072594;28;20494;-70
2021/09/25 03:14:36;;;;;;;1.50;1.10;;;10.80;98.00;;;;;;5072594;28;20490;-68
2021/09/25 03:17:04;;;;;;;1.73;1.40;;;10.90;98.00;;;;;;5071478;28;20492;-68
2021/09/25 03:19:31;;;;;;;1.73;1.40;;;10.90;98.00;;;;;;5072409;28;20497;-69
2021/09/25 03:21:59;;;;;;;1.70;1.40;;;10.60;98.00;;;;;;5072600;28;20463;-70
2021/09/25 03:24:26;;;;;;;1.93;1.20;;;10.50;98.00;;;;;;5072332;28;20481;-68
2021/09/25 03:26:53;;;;;;;1.60;1.20;;;10.40;98.00;;;;;;5072290;28;20487;-68
2021/09/25 03:29:21;;;;;;;1.40;1.10;;;10.60;98.00;;;;;;5072202;28;20465;-69
2021/09/25 03:31:49;;;;;;;1.33;1.23;;;10.60;98.00;;;;;;5072665;28;20552;-70
2021/09/25 03:34:16;;;;;;;1.20;1.00;;;10.60;98.00;;;;;;5072423;28;20461;-71
2021/09/25 03:36:43;;;;;;;1.30;1.27;;;10.50;98.00;;;;;;5072316;28;20459;-68
2021/09/25 03:39:11;;;;;;;1.83;1.50;;;10.40;98.00;;;;;;5072170;28;20549;-69
2021/09/25 03:41:38;;;;;;;1.20;1.20;;;10.50;98.00;;;;;;5072205;28;20503;-68
2021/09/25 03:44:05;;;;;;;1.57;1.23;;;10.40;98.00;;;;;;5072349;28;20456;-69
2021/09/25 03:46:40;;;;;;;1.40;1.20;;;10.40;98.00;;;;;;5072072;28;21073;-68
2021/09/25 03:49:08;;;;;;;1.60;1.20;;;10.40;98.00;;;;;;5072313;28;20509;-68
2021/09/25 03:51:35;;;;;;;1.20;1.10;;;10.30;98.00;;;;;;5072484;28;20482;-68
2021/09/25 03:54:02;;;;;;;1.30;1.10;;;10.10;98.00;;;;;;5071975;28;20492;-68
2021/09/25 03:56:30;;;;;;;1.20;1.00;;;10.00;98.00;;;;;;5072176;28;20457;-68
2021/09/25 03:58:57;;;;;;;1.70;1.20;;;10.10;98.00;;;;;;5071811;28;20461;-69
2021/09/25 04:01:24;;;;;;;1.20;1.10;;;10.30;98.00;;;;;;5071834;28;20948;-68
2021/09/25 04:03:51;;;;;;;1.50;1.27;;;10.30;98.00;;;;;;5071670;28;21079;-69
2021/09/25 04:06:18;;;;;;;1.40;1.30;;;10.20;98.00;;;;;;5071639;28;20527;-69
2021/09/25 04:08:45;;;;;;;1.60;1.40;;;10.30;98.00;;;;;;5071489;28;20503;-69
2021/09/25 04:11:12;;;;;;;1.40;1.30;;;10.40;98.00;;;;;;5071566;28;20457;-68
2021/09/25 04:13:40;;;;;;;1.63;1.30;;;10.40;98.00;;;;;;5071596;28;20479;-69
2021/09/25 04:16:07;;;;;;;1.30;1.20;;;10.40;98.00;;;;;;5071540;28;20518;-69
2021/09/25 04:18:36;;;;;;;2.33;1.57;;;10.20;98.00;;;;;;5071643;28;20874;-69
2021/09/25 04:21:03;;;;;;;1.70;1.53;;;10.20;98.00;;;;;;5071356;28;20510;-68
2021/09/25 04:23:30;;;;;;;1.30;1.13;;;10.30;98.00;;;;;;5071645;28;20547;-69
2021/09/25 04:25:57;;;;;;;1.30;1.20;;;10.10;98.00;;;;;;5071300;28;20538;-68
2021/09/25 04:28:24;;;;;;;1.20;1.10;;;10.00;98.00;;;;;;5071513;28;20825;-70
2021/09/25 04:30:52;;;;;;;1.40;1.20;;;9.90;98.00;;;;;;5071345;28;20485;-69
2021/09/25 04:33:19;;;;;;;1.20;1.10;;;10.00;98.00;;;;;;5071065;28;20457;-69
2021/09/25 04:35:46;;;;;;;1.20;1.00;;;9.90;98.00;;;;;;5071274;28;20453;-69
2021/09/25 04:38:13;;;;;;;1.33;1.27;;;9.90;98.00;;;;;;5071272;28;20511;-68
2021/09/25 04:40:40;;;;;;;1.50;1.13;;;9.90;98.00;;;;;;5070672;28;20496;-69
2021/09/25 04:43:07;;;;;;;1.93;1.20;;;10.00;98.00;;;;;;5071055;28;20522;-68
2021/09/25 04:45:36;;;;;;;1.30;1.10;;;10.00;98.00;;;;;;5071027;28;20496;-68
2021/09/25 04:48:05;;;;;;;1.93;1.37;;;10.10;98.00;;;;;;5071145;28;20482;-69
2021/09/25 04:50:32;;;;;;;1.50;1.40;;;10.00;98.00;;;;;;5071187;28;20455;-68
2021/09/25 04:53:07;;;;;;;2.03;1.53;;;9.90;98.00;;;;;;5071516;28;20503;-69
2021/09/25 04:55:35;;;;;;;1.60;1.30;;;9.90;98.00;;;;;;5071302;28;20957;-68
2021/09/25 04:58:02;;;;;;;1.20;1.03;;;9.90;98.00;;;;;;5071350;28;20454;-69
2021/09/25 05:00:28;;;;;;;2.07;1.30;;;9.90;98.00;;;;;;5071158;28;20489;-69
2021/09/25 05:02:55;;;;;;;1.67;1.30;;;9.80;98.00;;;;;;5071368;28;20530;-69
2021/09/25 05:05:24;;;;;;;1.73;1.20;;;9.80;98.00;;;;;;5071257;28;20480;-69
2021/09/25 05:07:53;;;;;;;1.20;1.10;;;9.80;98.00;;;;;;5071114;28;20545;-68
2021/09/25 05:10:20;;;;;;;2.13;1.30;;;9.70;98.00;;;;;;5071332;28;20453;-69
2021/09/25 05:12:47;;;;;;;1.33;1.20;;;9.80;98.00;;;;;;5071632;28;20454;-70
2021/09/25 05:15:16;;;;;;;1.83;1.37;;;9.80;98.00;;;;;;5071195;28;20511;-68
2021/09/25 05:17:43;;;;;;;1.40;1.20;;;9.80;98.00;;;;;;5071497;28;20448;-68
2021/09/25 05:20:12;;;;;;;1.77;1.40;;;9.90;98.00;;;;;;5070976;28;20519;-69
2021/09/25 05:22:40;;;;;;;1.20;1.10;;;9.90;98.00;;;;;;5070929;28;20943;-68
2021/09/25 05:25:08;;;;;;;5.23;1.27;;;9.80;98.00;;;;;;5070907;28;20502;-68
2021/09/25 05:27:35;;;;;;;1.30;1.10;;;9.70;98.00;;;;;;5070946;28;21080;-68
2021/09/25 05:30:03;;;;;;;1.40;1.30;;;9.60;98.00;;;;;;5070406;28;20824;-69
2021/09/25 05:32:30;;;;;;;1.20;1.00;;;9.60;98.00;;;;;;5070816;28;20497;-69
2021/09/25 05:34:59;;;;;;;1.30;1.20;;;9.60;98.00;;;;;;5071010;28;20802;-68
2021/09/25 05:37:26;;;;;;;1.30;1.10;;;9.70;98.00;;;;;;5070743;28;20521;-69
2021/09/25 05:39:55;;;;;;;1.40;1.30;;;9.80;98.00;;;;;;5070663;28;20889;-69
2021/09/25 05:42:23;;;;;;;1.37;1.20;;;9.90;98.00;;;;;;5070933;28;20489;-69
2021/09/25 05:44:51;;;;;;;1.20;1.00;;;9.90;98.00;;;;;;5073127;28;20885;-69
2021/09/25 05:47:18;;;;;;;1.23;1.17;;;10.00;98.00;;;;;;5072981;28;21048;-69
2021/09/25 05:49:46;;;;;;;1.40;1.40;;;9.90;98.00;;;;;;5074418;28;20898;-68
2021/09/25 05:52:14;;;;;;;1.30;1.10;;;10.00;98.00;;;;;;5074477;28;21098;-68
2021/09/25 05:54:41;;;;;;;2.70;1.73;;;10.00;98.00;;;;;;5074084;28;21012;-69
2021/09/25 05:57:10;;;;;;;1.20;1.10;;;9.90;98.00;;;;;;5074130;28;20457;-69
2021/09/25 05:59:38;;;;;;;1.30;1.20;;;9.90;98.00;;;;;;5074194;28;20492;-68
2021/09/25 06:02:05;;;;;;;1.40;1.30;;;9.90;98.00;;;;;;5074068;28;20507;-69
2021/09/25 06:04:33;;;;;;;1.20;1.10;;;10.10;98.00;;;;;;5074082;28;20522;-68
2021/09/25 06:07:00;;;;;;;1.40;1.20;;;10.20;98.00;;;;;;5073964;28;20493;-68
2021/09/25 06:09:27;;;;;;;1.30;1.20;;;10.20;98.00;;;;;;5073960;28;20523;-68
2021/09/25 06:11:55;;;;;;;1.20;1.20;;;10.20;98.00;;;;;;5073970;28;20992;-68
2021/09/25 06:14:24;;;;;;;1.20;1.00;;;10.30;98.00;;;;;;5073961;28;20459;-68
2021/09/25 06:16:51;;;;;;;1.30;1.30;;;10.40;98.00;;;;;;5073957;28;20864;-68
2021/09/25 06:19:18;;;;;;;1.30;1.30;;;10.50;98.00;;;;;;5073892;28;20494;-68
2021/09/25 06:21:45;;;;;;;1.50;1.10;;;10.50;98.00;;;;;;5073859;28;20822;-68
2021/09/25 06:24:12;;;;;;;1.87;1.07;;;10.60;98.00;;;;;;5073749;28;20489;-68
2021/09/25 06:26:39;;;;;;;1.63;1.30;;;10.70;98.00;;;;;;5073709;28;20944;-69
2021/09/25 06:29:06;;;;;;;1.93;1.83;;;10.60;98.00;;;;;;5073653;28;20449;-69
2021/09/25 06:31:35;;;;;;;1.70;1.60;;;10.60;98.00;;;;;;5073761;28;20931;-68
2021/09/25 06:34:02;;;;;;;1.70;1.40;;;10.60;98.00;;;;;;5073774;28;20449;-70
2021/09/25 06:36:29;;;;;;;2.00;1.60;;;10.60;98.00;;;;;;5073553;28;20462;-68
2021/09/25 06:38:56;;;;;;;1.20;1.00;;;10.60;98.00;;;;;;5073180;28;20458;-70
2021/09/25 06:41:23;;;;;;;1.70;1.13;;;10.60;98.00;;;;;;5073345;28;20466;-69
2021/09/25 06:43:50;;;;;;;1.50;1.30;;;10.60;98.00;;;;;;5073283;28;20551;-70
2021/09/25 06:46:17;;;;;;;3.03;1.63;;;10.40;98.00;;;;;;5073229;28;20920;-70
2021/09/25 06:48:47;;;;;;;1.50;1.30;;;10.40;98.00;;;;;;5073252;28;20483;-70
2021/09/25 06:51:15;;;;;;;1.93;1.73;;;10.40;98.00;;;;;;5072941;28;20858;-70
2021/09/25 06:53:42;;;;;;;2.43;1.50;;;10.30;98.00;;;;;;5073009;28;20471;-70
2021/09/25 06:56:09;;;;;;;1.80;1.37;;;10.40;98.00;;;;;;5072585;28;20462;-70
2021/09/25 06:58:36;;;;;;;1.30;1.23;;;10.50;98.00;;;;;;5072952;28;20491;-70
2021/09/25 07:01:03;;;;;;;3.10;1.60;;;10.70;98.00;;;;;;5072824;28;20878;-69
2021/09/25 07:03:30;;;;;;;1.60;1.20;;;10.70;98.00;;;;;;5072928;28;20457;-69
2021/09/25 07:05:59;;;;;;;1.30;1.10;;;10.70;98.00;;;;;;5072516;28;20946;-71
2021/09/25 07:08:26;;;;;;;1.77;1.30;;;10.80;98.00;;;;;;5072458;28;20512;-70
2021/09/25 07:10:56;;;;;;;1.40;1.40;;;10.90;98.00;;;;;;5072705;28;20487;-70
2021/09/25 07:13:23;;;;;;;1.30;1.13;;;10.90;98.00;;;;;;5072608;28;20453;-70
2021/09/25 07:15:50;;;;;;;1.60;1.50;;;11.00;98.00;;;;;;5072602;28;20863;-70
2021/09/25 07:18:17;;;;;;;1.70;1.60;;;11.10;98.00;;;;;;5072453;28;20991;-70
2021/09/25 07:20:44;;;;;;;1.90;1.43;;;11.30;98.00;;;;;;5072427;28;20458;-69
2021/09/25 07:23:14;;;;;;;1.37;1.20;;;11.40;98.00;;;;;;5072447;28;20937;-68
2021/09/25 07:25:41;;;;;;;1.80;1.30;;;11.50;98.00;;;;;;5072679;28;20547;-68
2021/09/25 07:28:09;;;;;;;4.20;2.03;;;11.70;98.00;;;;;;5072046;28;20518;-71
2021/09/25 07:30:39;;;;;;;1.30;1.20;;;11.90;98.00;;;;;;5072414;28;20461;-68
2021/09/25 07:33:06;;;;;;;1.23;1.10;;;12.00;98.00;;;;;;5072497;28;20458;-71
2021/09/25 07:35:35;;;;;;;1.33;1.13;;;12.60;98.00;;;;;;5072428;28;21054;-68
2021/09/25 07:38:02;;;;;;;1.40;1.30;;;12.80;98.00;;;;;;5072515;28;20548;-69
2021/09/25 07:40:31;;;;;;;1.97;1.40;;;12.80;98.00;;;;;;5072310;28;21236;-71
2021/09/25 07:42:58;;;;;;;1.90;1.83;;;13.20;98.00;;;;;;5081534;28;20455;-70
2021/09/25 07:45:25;;;;;;;2.40;2.17;;;13.50;98.00;;;;;;5091694;28;20935;-68
2021/09/25 07:47:53;;;;;;;1.40;1.33;;;13.60;98.00;;;;;;5102984;28;20571;-69
2021/09/25 07:50:20;;;;;;;1.83;1.50;;;13.70;98.00;;;;;;5077623;28;20508;-69
2021/09/25 07:52:49;;;;;;;1.50;1.40;;;13.70;98.00;;;;;;5100368;28;20536;-70
2021/09/25 07:55:17;;;;;;;2.30;1.60;;;13.70;98.00;;;;;;5093976;28;20453;-69
2021/09/25 07:57:45;;;;;;;1.90;1.47;;;13.70;98.00;;;;;;5104833;28;20593;-69
2021/09/25 08:00:14;;;;;;;1.70;1.47;;;13.70;98.00;;;;;;5099373;28;20501;-70
2021/09/25 08:02:41;;;;;;;3.73;2.90;;;13.80;98.00;;;;;;5100735;28;20456;-70
2021/09/25 08:05:10;;;;;;;2.97;2.23;;;14.00;98.00;;;;;;5105153;28;20918;-70
2021/09/25 08:07:37;;;;;;;1.87;1.40;;;14.30;98.00;;;;;;5107621;28;20495;-70
2021/09/25 08:10:05;;;;;;;2.90;1.43;;;14.40;98.00;;;;;;5107697;28;20521;-70
2021/09/25 08:12:33;;;;;;;2.30;1.77;;;14.40;98.00;;;;;;5108139;28;20785;-70
2021/09/25 08:15:01;;;;;;;2.13;1.90;;;14.50;98.00;;;;;;5103737;28;21185;-70
2021/09/25 08:17:28;;;;;;;2.67;1.77;;;14.60;98.00;;;;;;5096082;28;20454;-70
2021/09/25 08:19:55;;;;;;;1.40;1.30;;;14.70;98.00;;;;;;5093586;28;21009;-70
2021/09/25 08:22:22;;;;;;;1.67;1.60;;;15.00;98.00;;;;;;5099422;28;20516;-69
2021/09/25 08:24:50;;;;;;;1.87;1.77;;;15.20;98.00;;;;;;5088531;28;20508;-69
2021/09/25 08:27:17;;;;;;;2.40;1.60;;;15.30;98.00;;;;;;5090735;28;20494;-70
2021/09/25 08:29:44;;;;;;;1.57;1.43;;;15.30;98.00;;;;;;5091670;28;20504;-72
2021/09/25 08:32:13;;;;;;;1.77;1.50;;;15.50;98.00;;;;;;5091558;28;20489;-71
2021/09/25 08:34:40;;;;;;;2.50;1.70;;;15.70;98.00;;;;;;5091473;28;20497;-71
2021/09/25 08:37:09;;;;;;;3.43;2.33;;;15.80;98.00;;;;;;5091630;28;20941;-70
2021/09/25 08:39:36;;;;;;;2.60;1.60;;;16.00;98.00;;;;;;5091547;28;20460;-71
2021/09/25 08:42:03;;;;;;;1.63;1.30;;;16.20;98.00;;;;;;5091380;28;20969;-70
2021/09/25 08:44:32;;;;;;;3.17;2.40;;;16.40;98.00;;;;;;5091486;28;20792;-71
2021/09/25 08:46:59;;;;;;;1.87;1.77;;;16.50;98.00;;;;;;5091436;28;20459;-72
2021/09/25 08:49:28;;;;;;;2.23;1.70;;;16.70;98.00;;;;;;5090319;28;20529;-71
2021/09/25 08:51:57;;;;;;;1.90;1.70;;;16.90;98.00;;;;;;5091535;28;20451;-71
2021/09/25 08:54:24;;;;;;;1.73;1.67;;;17.00;98.00;;;;;;5089927;28;20451;-72
2021/09/25 08:56:51;;;;;;;2.57;1.90;;;17.10;98.00;;;;;;5091638;28;20448;-72
2021/09/25 08:59:18;;;;;;;2.27;2.00;;;17.20;98.00;;;;;;5091401;28;20517;-72
2021/09/25 09:01:48;;;;;;;1.97;1.60;;;17.30;98.00;;;;;;5091708;28;20460;-71
2021/09/25 09:04:17;;;;;;;1.60;1.50;;;17.40;98.00;;;;;;5091472;28;20456;-71
2021/09/25 09:06:48;;;;;;;1.80;1.70;;;17.50;98.00;;;;;;5091555;28;20926;-73
2021/09/25 09:09:16;;;;;;;2.97;2.23;;;17.60;98.00;;;;;;5091204;28;21048;-69
2021/09/25 09:11:46;;;;;;;1.80;1.57;;;17.80;98.00;;;;;;5090487;28;20543;-73
2021/09/25 09:14:15;;;;;;;2.03;1.53;;;18.10;98.00;;;;;;5091484;28;20585;-72
2021/09/25 09:16:42;;;;;;;2.43;1.90;;;18.20;98.00;;;;;;5090486;28;20479;-71
2021/09/25 09:19:11;;;;;;;2.43;2.17;;;18.50;98.00;;;;;;5094282;28;20517;-72
2021/09/25 09:21:38;;;;;;;1.80;1.70;;;18.70;98.00;;;;;;5095423;28;20456;-72
2021/09/25 09:24:14;;;;;;;2.13;1.80;;;18.90;98.00;;;;;;5094916;28;20974;-71
2021/09/25 09:26:41;;;;;;;1.50;1.40;;;19.10;98.00;;;;;;5095249;28;20463;-73
2021/09/25 09:29:10;;;;;;;3.00;1.80;;;19.30;98.00;;;;;;5095221;28;20571;-73
2021/09/25 09:31:37;;;;;;;3.17;2.17;;;19.50;98.00;;;;;;5095126;28;20516;-73
2021/09/25 09:34:07;;;;;;;2.13;1.67;;;19.60;98.00;;;;;;5095020;28;20498;-74
2021/09/25 09:36:35;;;;;;;1.70;1.50;;;19.80;98.00;;;;;;5093889;28;20522;-73
2021/09/25 09:39:09;;;;;;;1.50;1.10;;;20.10;98.00;;;;;;5094969;28;20883;-73
2021/09/25 09:41:38;;;;;;;2.10;2.00;;;20.30;98.00;;;;;;5094821;28;21198;-73
2021/09/25 09:44:07;;;;;;;2.60;2.10;;;20.60;98.00;;;;;;5093893;28;20455;-73
2021/09/25 09:46:37;;;;;;;2.30;1.73;;;20.70;98.00;;;;;;5094590;28;20447;-73
2021/09/25 09:49:05;;;;;;;2.73;1.70;;;20.90;98.00;;;;;;5094766;28;20483;-73
2021/09/25 09:51:44;;;;;;;1.70;1.60;;;21.10;98.00;;;;;;5094795;28;20488;-72
2021/09/25 09:54:23;;;;;;;1.87;1.87;;;21.40;98.00;;;;;;5093579;28;21016;-74
2021/09/25 09:56:52;;;;;;;2.20;2.00;;;21.50;98.00;;;;;;5094886;28;20455;-74
2021/09/25 09:59:19;;;;;;;2.23;1.37;;;21.80;98.00;;;;;;5094442;28;20867;-73
2021/09/25 10:01:51;;;;;;;3.90;2.00;;;21.90;98.00;;;;;;5094713;28;20444;-73
2021/09/25 10:04:19;;;;;;;2.33;1.50;;;21.90;98.00;;;;;;5094514;28;20505;-73
2021/09/25 10:06:46;;;;;;;3.87;2.23;;;22.10;98.00;;;;;;5094558;28;20512;-74
2021/09/25 10:09:16;;;;;;;2.47;1.80;;;22.30;98.00;;;;;;5094054;28;20484;-74
2021/09/25 10:11:45;;;;;;;2.83;1.70;;;22.50;97.90;;;;;;5094750;28;20483;-74
2021/09/25 10:14:17;;;;;;;3.17;1.70;;;22.80;97.90;;;;;;5093331;28;20452;-74
2021/09/25 10:16:44;;;;;;;2.17;1.67;;;22.90;98.00;;;;;;5094400;28;20488;-74
2021/09/25 10:19:13;;;;;;;2.30;1.40;;;23.00;98.00;;;;;;5094499;28;20494;-74
2021/09/25 10:21:40;;;;;;;2.13;1.80;;;23.20;97.80;;;;;;5093339;28;20452;-73
2021/09/25 10:24:11;;;;;;;3.00;1.83;;;23.40;96.60;;;;;;5094333;28;20459;-73
2021/09/25 10:26:44;;;;;;;2.93;1.90;;;23.60;95.90;;;;;;5094248;28;20509;-74
2021/09/25 10:29:17;;;;;;;3.10;1.77;;;23.80;94.80;;;;;;5093502;28;20962;-73
2021/09/25 10:31:44;;;;;;;2.53;1.90;;;24.00;94.60;;;;;;5094315;28;20468;-74
2021/09/25 10:34:14;;;;;;;2.70;1.90;;;24.20;94.40;;;;;;5093990;28;20965;-74
2021/09/25 10:36:47;;;;;;;2.63;1.97;;;24.10;95.00;;;;;;5094055;28;20451;-74
2021/09/25 10:39:36;;;;;;;1.80;1.67;;;24.20;95.20;;;;;;5094030;28;20452;-75
2021/09/25 10:42:11;;;;;;;2.40;1.80;;;24.40;93.40;;;;;;5093213;28;20464;-74
2021/09/25 10:44:48;;;;;;;2.97;2.00;;;24.60;93.80;;;;;;5094024;28;20862;-73
2021/09/25 10:47:18;;;;;;;2.60;1.90;;;24.80;93.00;;;;;;5094543;28;20502;-73
2021/09/25 10:49:57;;;;;;;3.40;2.40;;;25.10;90.50;;;;;;5094287;28;20495;-74
2021/09/25 10:52:40;;;;;;;2.40;1.90;;;25.20;91.60;;;;;;5093804;28;20444;-73
2021/09/25 10:55:26;;;;;;;2.77;1.90;;;25.50;92.00;;;;;;5093147;28;20464;-74
2021/09/25 10:58:14;;;;;;;3.70;2.03;;;25.70;89.60;;;;;;5093158;28;21070;-74
2021/09/25 11:01:03;;;;;;;3.30;2.43;;;25.90;89.50;;;;;;5093055;28;20456;-74
2021/09/25 11:03:59;;;;;;;2.93;1.90;;;25.80;91.30;;;;;;5092164;28;20492;-72
2021/09/25 11:06:41;;;;;;;2.43;1.90;;;25.90;89.60;;;;;;5093071;28;20460;-72
2021/09/25 11:09:10;;;;;;;3.00;1.93;;;26.30;88.40;;;;;;5094172;28;20890;-75
2021/09/25 11:11:42;;;;;;;2.67;2.03;;;26.60;87.60;;;;;;5094443;28;20510;-75
2021/09/25 11:14:20;;;;;;;2.97;1.87;;;26.80;88.40;;;;;;5093454;28;20471;-75
2021/09/25 11:16:54;;;;;;;2.73;2.10;;;27.00;87.30;;;;;;5093212;28;20807;-74
2021/09/25 11:19:52;;;;;;;3.40;2.23;;;27.10;87.00;;;;;;5092793;28;20459;-74
2021/09/25 11:22:28;;;;;;;3.00;1.97;;;27.00;86.70;;;;;;5092963;28;20509;-75
2021/09/25 11:24:57;;;;;;;2.50;1.63;;;26.90;86.80;;;;;;5093163;28;20509;-74
2021/09/25 11:27:28;;;;;;;2.30;2.07;;;27.00;87.90;;;;;;5092822;28;20878;-71
2021/09/25 11:30:06;;;;;;;3.87;2.20;;;27.30;86.00;;;;;;5091355;28;21032;-72
2021/09/25 11:32:35;;;;;;;3.03;2.10;;;27.50;84.40;;;;;;5093075;28;20791;-72
2021/09/25 11:35:06;;;;;;;3.20;2.07;;;27.60;84.10;;;;;;5092729;28;20491;-72
2021/09/25 11:37:33;;;;;;;2.60;2.07;;;27.70;84.20;;;;;;5092536;28;21235;-71
2021/09/25 11:40:00;;;;;;;3.23;2.00;;;27.80;84.70;;;;;;5092493;28;20456;-72
2021/09/25 11:42:29;;;;;;;2.20;1.80;;;28.10;84.30;;;;;;5092487;28;20448;-73
2021/09/25 11:44:59;;;;;;;2.70;2.03;;;28.10;82.20;;;;;;5092556;28;20475;-70
2021/09/25 11:47:31;;;;;;;3.33;2.47;;;28.20;84.20;;;;;;5092646;28;20462;-72
2021/09/25 11:50:00;;;;;;;2.47;2.00;;;28.30;82.70;;;;;;5092543;28;20570;-73
2021/09/25 11:52:28;;;;;;;2.63;1.93;;;28.30;81.60;;;;;;5092522;28;20448;-71
2021/09/25 11:54:57;;;;;;;3.00;2.20;;;28.20;82.20;;;;;;5091172;28;20459;-72
2021/09/25 11:57:26;;;;;;;2.87;2.13;;;28.10;82.90;;;;;;5092433;28;20464;-72
2021/09/25 11:59:54;;;;;;;3.07;2.30;;;28.10;83.40;;;;;;5092310;28;20838;-71
2021/09/25 12:02:44;;;;;;;3.07;2.20;;;27.90;83.40;;;;;;5092070;28;20507;-72
2021/09/25 12:05:27;;;;;;;2.70;1.80;;;27.70;83.40;;;;;;5092081;28;20556;-74
2021/09/25 12:07:56;;;;;;;3.10;2.00;;;27.60;84.50;;;;;;5092011;28;20467;-75
2021/09/25 12:10:26;;;;;;;3.80;2.10;;;27.50;83.40;;;;;;5111899;28;20969;-74
2021/09/25 12:13:06;;;;;;;4.80;2.30;;;27.30;85.60;;;;;;5112419;28;20443;-72
2021/09/25 12:15:36;;;;;;;3.00;2.30;;;27.20;82.40;;;;;;5112042;28;20545;-72
2021/09/25 12:18:24;;;;;;;2.50;1.90;;;26.90;82.30;;;;;;5112331;28;20459;-72
2021/09/25 12:20:55;;;;;;;2.23;1.80;;;26.70;84.30;;;;;;5112305;28;20459;-73
2021/09/25 12:23:25;;;;;;;3.00;1.83;;;26.80;85.60;;;;;;5112196;28;20451;-73
2021/09/25 12:25:54;;;;;;;2.13;1.93;;;26.80;83.10;;;;;;5112727;28;20486;-72
2021/09/25 12:28:32;;;;;;;2.60;1.90;;;26.80;83.30;;;;;;5112692;28;20459;-73
2021/09/25 12:31:01;;;;;;;2.60;1.80;;;26.70;83.00;;;;;;5112942;28;20508;-72
2021/09/25 12:33:29;;;;;;;1.97;1.70;;;26.80;83.50;;;;;;5112241;28;20477;-72
2021/09/25 12:36:07;;;;;;;2.80;2.03;;;26.70;81.20;;;;;;5112261;28;20451;-73
2021/09/25 12:38:36;;;;;;;2.37;1.93;;;26.70;83.30;;;;;;5112038;28;20527;-72
2021/09/25 12:41:06;;;;;;;2.23;1.70;;;26.80;83.40;;;;;;5112015;28;20462;-72
2021/09/25 12:43:36;;;;;;;3.93;2.20;;;26.90;82.40;;;;;;5112019;28;20505;-71
2021/09/25 12:46:09;;;;;;;1.40;1.40;;;26.90;80.60;;;;;;5112002;28;20504;-71
2021/09/25 12:49:08;;;;;;;2.30;2.00;;;27.00;81.50;;;;;;5111856;28;20511;-71
2021/09/25 12:51:38;;;;;;;2.57;1.90;;;27.30;82.10;;;;;;5111951;28;20451;-72
2021/09/25 12:54:08;;;;;;;2.33;1.53;;;27.60;81.70;;;;;;5115101;28;20969;-73
2021/09/25 12:56:41;;;;;;;3.00;1.90;;;27.70;81.70;;;;;;5116171;28;20454;-71
2021/09/25 12:59:11;;;;;;;1.90;1.60;;;27.90;79.40;;;;;;5116046;28;20458;-71